Time;durP1;ratioP1;P1;durP2;ratioP2;P2;SDS_P1;SDS_P2;PMS_P1;PMS_P2;Temp;Humidity;BMP_temperature;BMP_pressure;BME280_temperature;BME280_humidity;BME280_pressure;Samples;Min_cycle;Max_cycle;Signal;HPM_P1;HPM_P2
2022/11/12 00:00:49;;;;;;;4.75;2.10;;;19.80;52.10;;;;;;5113065;28;20059;-11
2022/11/12 00:03:33;;;;;;;3.28;2.00;;;19.80;52.30;;;;;;5113019;28;20058;-11
2022/11/12 00:06:18;;;;;;;2.28;1.90;;;19.80;52.10;;;;;;5113192;28;20055;-11
2022/11/12 00:09:02;;;;;;;2.78;2.08;;;19.80;52.10;;;;;;5114621;28;20097;-11
2022/11/12 00:11:46;;;;;;;3.60;2.20;;;19.80;52.10;;;;;;5116755;28;20453;-11
2022/11/12 00:14:31;;;;;;;2.20;1.80;;;19.80;52.10;;;;;;5116832;28;20055;-11
2022/11/12 00:17:15;;;;;;;4.20;1.92;;;19.80;52.20;;;;;;5116645;28;20128;-11
2022/11/12 00:19:59;;;;;;;3.15;2.30;;;19.80;52.10;;;;;;5116467;28;20058;-11
2022/11/12 00:22:44;;;;;;;4.15;2.08;;;19.80;52.20;;;;;;5116418;28;20063;-11
2022/11/12 00:25:28;;;;;;;3.70;2.30;;;19.70;52.10;;;;;;5116323;28;20177;-11
2022/11/12 00:28:13;;;;;;;2.47;1.85;;;19.70;52.10;;;;;;5116029;28;20101;-11
2022/11/12 00:30:57;;;;;;;2.58;2.15;;;19.80;52.20;;;;;;5116530;28;20135;-11
2022/11/12 00:33:42;;;;;;;2.72;2.00;;;19.80;52.10;;;;;;5116814;28;20046;-11
2022/11/12 00:36:26;;;;;;;2.33;1.75;;;19.80;52.10;;;;;;5116484;28;20108;-11
2022/11/12 00:39:11;;;;;;;2.90;1.98;;;19.70;52.10;;;;;;5116220;28;20416;-11
2022/11/12 00:41:55;;;;;;;2.80;2.03;;;19.80;52.20;;;;;;5116639;28;20049;-11
2022/11/12 00:44:39;;;;;;;2.78;2.10;;;19.70;52.10;;;;;;5116335;28;20514;-11
2022/11/12 00:47:23;;;;;;;2.97;1.90;;;19.70;52.10;;;;;;5115682;28;20078;-11
2022/11/12 00:50:08;;;;;;;2.45;1.80;;;19.70;52.10;;;;;;5116276;28;20411;-11
2022/11/12 00:52:52;;;;;;;2.95;1.67;;;19.70;52.10;;;;;;5115978;28;20062;-11
2022/11/12 00:55:36;;;;;;;4.13;1.95;;;19.70;52.10;;;;;;5115953;28;20142;-11
2022/11/12 00:58:20;;;;;;;3.75;1.90;;;19.70;52.10;;;;;;5115629;28;20109;-11
2022/11/12 01:01:10;;;;;;;3.10;1.90;;;19.70;52.10;;;;;;5115718;28;20407;-11
2022/11/12 01:03:57;;;;;;;2.42;1.85;;;19.70;52.10;;;;;;5116069;28;20526;-11
2022/11/12 01:06:42;;;;;;;1.75;1.58;;;19.70;52.10;;;;;;5115715;28;20054;-11
2022/11/12 01:09:26;;;;;;;3.55;1.90;;;19.70;52.10;;;;;;5115977;28;20081;-11
2022/11/12 01:12:10;;;;;;;2.97;2.15;;;19.70;52.10;;;;;;5115572;28;20100;-11
2022/11/12 01:14:55;;;;;;;3.05;2.13;;;19.70;52.10;;;;;;5115628;28;20112;-11
2022/11/12 01:17:39;;;;;;;2.45;1.92;;;19.70;52.10;;;;;;5115595;28;20059;-11
2022/11/12 01:20:23;;;;;;;3.38;2.05;;;19.70;52.20;;;;;;5115397;28;20055;-11
2022/11/12 01:23:07;;;;;;;2.42;1.83;;;19.70;52.10;;;;;;5115741;28;20147;-11
2022/11/12 01:25:51;;;;;;;3.53;1.90;;;19.70;52.10;;;;;;5115682;28;20139;-11
2022/11/12 01:28:36;;;;;;;2.75;2.00;;;19.70;52.20;;;;;;5115363;28;20196;-11
2022/11/12 01:31:31;;;;;;;2.35;1.83;;;19.70;52.10;;;;;;5115063;28;20494;-11
2022/11/12 01:34:16;;;;;;;2.45;1.98;;;19.70;52.10;;;;;;5115572;28;20057;-11
2022/11/12 01:36:59;;;;;;;3.80;2.00;;;19.70;52.10;;;;;;5115155;28;20453;-11
2022/11/12 01:39:44;;;;;;;2.40;1.83;;;19.70;52.10;;;;;;5115133;28;20530;-11
2022/11/12 01:42:31;;;;;;;2.92;2.03;;;19.70;52.20;;;;;;5115083;28;20077;-11
2022/11/12 01:45:16;;;;;;;2.15;1.80;;;19.70;52.10;;;;;;5115121;28;20139;-11
2022/11/12 01:48:01;;;;;;;2.95;2.10;;;19.70;52.20;;;;;;5114933;28;20071;-11
2022/11/12 01:50:45;;;;;;;2.15;1.90;;;19.70;52.20;;;;;;5114942;28;20062;-11
2022/11/12 01:53:37;;;;;;;2.70;1.90;;;19.70;52.20;;;;;;5115294;28;20456;-11
2022/11/12 01:56:22;;;;;;;;;;;19.70;52.20;;;;;;5115660;28;20054;-11
2022/11/12 01:59:13;;;;;;;2.33;1.65;;;19.70;52.20;;;;;;5115269;28;20291;-11
2022/11/12 02:01:57;;;;;;;1.80;1.50;;;19.70;52.10;;;;;;5114744;28;20074;-11
2022/11/12 02:04:42;;;;;;;5.63;2.22;;;19.60;52.10;;;;;;5114761;28;20058;-11
2022/11/12 02:07:29;;;;;;;4.25;2.10;;;19.70;52.20;;;;;;5114671;28;20054;-11
2022/11/12 02:10:14;;;;;;;2.53;1.70;;;19.70;52.20;;;;;;5114690;28;20487;-11
2022/11/12 02:16:03;;;;;;;3.15;2.25;;;19.70;52.20;;;;;;5114423;28;20074;-11
2022/11/12 02:18:48;;;;;;;2.55;1.90;;;19.60;52.10;;;;;;5114438;28;20113;-11
2022/11/12 02:21:33;;;;;;;2.22;1.65;;;19.70;52.20;;;;;;5114478;28;20061;-11
2022/11/12 02:24:17;;;;;;;2.38;1.77;;;19.70;52.10;;;;;;5114774;28;20089;-11
2022/11/12 02:27:03;;;;;;;2.75;1.90;;;19.70;52.20;;;;;;5114319;28;20054;-11
2022/11/12 02:29:47;;;;;;;2.15;1.85;;;19.70;52.10;;;;;;5114153;28;20063;-11
2022/11/12 02:32:32;;;;;;;1.73;1.63;;;19.70;52.10;;;;;;5113637;28;20139;-11
2022/11/12 02:35:16;;;;;;;2.15;1.80;;;19.70;52.10;;;;;;5114597;28;20497;-11
2022/11/12 02:38:00;;;;;;;2.75;2.13;;;19.70;52.10;;;;;;5114173;28;20063;-11
2022/11/12 02:40:44;;;;;;;1.98;1.55;;;19.70;52.10;;;;;;5114249;28;20449;-11
2022/11/12 02:43:28;;;;;;;2.50;1.80;;;19.70;52.10;;;;;;5114217;28;20100;-11
2022/11/12 02:46:12;;;;;;;2.75;1.67;;;19.70;52.10;;;;;;5114408;28;20145;-11
2022/11/12 02:48:56;;;;;;;2.70;1.85;;;19.60;52.10;;;;;;5114015;28;20054;-11
2022/11/12 02:51:42;;;;;;;2.30;1.60;;;19.70;52.20;;;;;;5114143;28;20108;-11
2022/11/12 02:54:26;;;;;;;2.03;1.70;;;19.70;52.10;;;;;;5114597;28;20438;-11
2022/11/12 02:57:10;;;;;;;2.03;1.70;;;19.70;52.10;;;;;;5113744;28;20054;-11
2022/11/12 02:59:54;;;;;;;4.85;2.00;;;19.70;52.10;;;;;;5113900;28;20125;-11
2022/11/12 03:02:41;;;;;;;3.35;1.92;;;19.70;52.10;;;;;;5113068;28;20548;-11
2022/11/12 03:05:30;;;;;;;2.47;1.90;;;19.70;52.10;;;;;;5113900;28;20140;-11
2022/11/12 03:08:14;;;;;;;1.75;1.63;;;19.60;52.60;;;;;;5113797;28;20414;-11
2022/11/12 03:10:58;;;;;;;2.22;1.65;;;19.70;52.70;;;;;;5113962;28;20080;-11
2022/11/12 03:13:42;;;;;;;2.65;1.90;;;19.60;52.10;;;;;;5114043;28;20081;-11
2022/11/12 03:16:27;;;;;;;3.17;2.05;;;19.60;52.10;;;;;;5113529;28;20055;-11
2022/11/12 03:19:12;;;;;;;1.45;1.35;;;19.70;52.10;;;;;;5113940;28;20090;-11
2022/11/12 03:21:56;;;;;;;3.78;2.13;;;19.70;52.10;;;;;;5113881;28;20073;-11
2022/11/12 03:24:40;;;;;;;2.03;1.60;;;19.70;52.10;;;;;;5113564;28;20560;-11
2022/11/12 03:27:24;;;;;;;2.10;1.90;;;19.70;51.90;;;;;;5113525;28;21487;-11
2022/11/12 03:30:08;;;;;;;2.13;1.60;;;19.80;51.90;;;;;;5113236;28;20054;-11
2022/11/12 03:32:53;;;;;;;2.45;1.75;;;19.80;51.80;;;;;;5113698;28;20091;-11
2022/11/12 03:35:38;;;;;;;2.08;1.60;;;19.80;51.70;;;;;;5111525;28;20096;-11
2022/11/12 03:38:23;;;;;;;1.83;1.52;;;19.90;51.70;;;;;;5113190;28;20572;-11
2022/11/12 03:41:07;;;;;;;2.95;2.00;;;19.90;51.60;;;;;;5110765;28;20446;-11
2022/11/12 03:43:51;;;;;;;2.80;1.60;;;19.90;52.10;;;;;;5113012;28;20062;-11
2022/11/12 03:46:36;;;;;;;2.60;1.75;;;19.90;52.00;;;;;;5113801;28;20094;-11
2022/11/12 03:49:20;;;;;;;1.70;1.60;;;20.00;51.40;;;;;;5113505;28;20117;-11
2022/11/12 03:52:04;;;;;;;1.83;1.50;;;20.00;51.90;;;;;;5113426;28;20096;-11
2022/11/12 03:54:48;;;;;;;1.80;1.70;;;20.10;51.30;;;;;;5113457;28;20058;-11
2022/11/12 03:57:32;;;;;;;1.98;1.60;;;20.10;51.20;;;;;;5113407;28;20066;-11
2022/11/12 04:00:17;;;;;;;1.95;1.60;;;20.10;51.10;;;;;;5113389;28;20497;-11
2022/11/12 04:03:01;;;;;;;2.20;1.50;;;20.10;51.10;;;;;;5112967;28;20086;-11
2022/11/12 04:08:48;;;;;;;1.70;1.50;;;20.20;51.00;;;;;;5113078;28;20151;-11
2022/11/12 04:11:32;;;;;;;2.45;1.52;;;20.20;50.90;;;;;;5113171;28;20101;-11
2022/11/12 04:14:17;;;;;;;1.50;1.35;;;20.20;50.80;;;;;;5112872;28;20066;-11
2022/11/12 04:23:08;;;;;;;2.15;1.73;;;20.30;50.70;;;;;;5113019;28;20178;-11
2022/11/12 04:31:58;;;;;;;1.63;1.40;;;20.30;51.20;;;;;;5112573;28;20540;-11
2022/11/12 04:34:42;;;;;;;2.03;1.60;;;20.40;50.60;;;;;;5112611;28;20104;-11
2022/11/12 04:37:28;;;;;;;2.47;1.73;;;20.40;50.60;;;;;;5112629;28;20557;-11
2022/11/12 04:46:30;;;;;;;2.17;1.60;;;20.30;50.60;;;;;;5096213;28;20212;-11
2022/11/12 04:49:14;;;;;;;1.58;1.38;;;20.40;50.60;;;;;;5112410;28;20552;-11
2022/11/12 04:52:04;;;;;;;1.73;1.40;;;20.40;50.60;;;;;;5112362;28;20050;-11
2022/11/12 04:54:49;;;;;;;2.83;1.70;;;20.30;50.60;;;;;;5113651;28;20072;-11
2022/11/12 04:57:34;;;;;;;1.90;1.65;;;20.30;50.60;;;;;;5115655;28;20544;-11
2022/11/12 05:00:18;;;;;;;2.42;1.70;;;20.30;50.70;;;;;;5115790;28;20054;-11
2022/11/12 05:03:02;;;;;;;1.63;1.52;;;20.30;50.70;;;;;;5116094;28;20536;-11
2022/11/12 05:05:46;;;;;;;1.70;1.50;;;20.30;50.70;;;;;;5115760;28;20112;-11
2022/11/12 05:08:30;;;;;;;1.75;1.48;;;20.30;50.70;;;;;;5115485;28;20066;-11
2022/11/12 05:11:14;;;;;;;2.08;1.83;;;20.30;50.70;;;;;;5116118;28;20498;-11
2022/11/12 05:13:58;;;;;;;2.08;1.52;;;20.30;50.70;;;;;;5115914;28;20116;-11
2022/11/12 05:16:43;;;;;;;1.50;1.40;;;20.20;50.70;;;;;;5115476;28;20116;-11
2022/11/12 05:19:28;;;;;;;2.47;1.80;;;20.30;50.80;;;;;;5115306;28;20559;-11
2022/11/12 05:22:12;;;;;;;2.17;1.92;;;20.30;50.80;;;;;;5114952;28;20062;-11
2022/11/12 05:24:57;;;;;;;2.35;1.85;;;20.30;51.30;;;;;;5115502;28;20089;-11
2022/11/12 05:27:41;;;;;;;1.70;1.60;;;20.20;51.30;;;;;;5115617;28;20534;-11
2022/11/12 05:30:25;;;;;;;3.08;1.80;;;20.20;50.70;;;;;;5115267;28;20078;-11
2022/11/12 05:33:09;;;;;;;1.45;1.35;;;20.20;50.70;;;;;;5115230;28;20104;-11
2022/11/12 05:35:55;;;;;;;1.83;1.50;;;20.30;50.80;;;;;;5113427;28;20185;-11
2022/11/12 05:38:39;;;;;;;2.15;1.60;;;20.20;50.70;;;;;;5115041;28;20419;-11
2022/11/12 05:41:24;;;;;;;2.33;1.58;;;20.20;50.70;;;;;;5115003;28;20502;-11
2022/11/12 05:44:09;;;;;;;1.85;1.40;;;20.20;50.70;;;;;;5115431;28;20058;-11
2022/11/12 05:46:53;;;;;;;1.75;1.40;;;20.20;50.70;;;;;;5115387;28;20066;-11
2022/11/12 05:49:37;;;;;;;1.60;1.50;;;20.30;50.70;;;;;;5115007;28;20085;-11
2022/11/12 05:52:21;;;;;;;2.10;1.48;;;20.30;50.70;;;;;;5115294;28;20457;-11
2022/11/12 05:55:06;;;;;;;1.52;1.40;;;20.30;50.70;;;;;;5115563;28;20520;-11
2022/11/12 05:57:50;;;;;;;1.40;1.30;;;20.30;50.70;;;;;;5114904;28;20063;-11
2022/11/12 06:00:40;;;;;;;3.00;1.48;;;20.30;50.70;;;;;;5115059;28;20063;-11
2022/11/12 06:03:25;;;;;;;1.65;1.35;;;20.30;50.80;;;;;;5115174;28;20177;-11
2022/11/12 06:06:10;;;;;;;1.50;1.40;;;20.30;50.70;;;;;;5113337;28;20062;-11
2022/11/12 06:08:54;;;;;;;1.85;1.55;;;20.30;50.70;;;;;;5115024;28;20097;-11
2022/11/12 06:11:38;;;;;;;1.77;1.52;;;20.20;50.70;;;;;;5114954;28;20054;-11
2022/11/12 06:14:23;;;;;;;1.40;1.30;;;20.30;50.70;;;;;;5115204;28;20073;-11
2022/11/12 06:17:07;;;;;;;1.77;1.50;;;20.20;50.70;;;;;;5096846;28;20403;-11
2022/11/12 06:19:51;;;;;;;2.15;1.58;;;20.20;50.70;;;;;;5114602;28;20058;-11
2022/11/12 06:22:36;;;;;;;1.52;1.40;;;20.20;50.70;;;;;;5114802;28;20086;-11
2022/11/12 06:25:20;;;;;;;2.25;1.55;;;20.30;50.70;;;;;;5114489;28;20067;-11
2022/11/12 06:28:05;;;;;;;1.63;1.50;;;20.20;50.70;;;;;;5114392;28;20077;-11
2022/11/12 06:30:49;;;;;;;2.63;1.70;;;20.30;50.70;;;;;;5114348;28;20094;-11
2022/11/12 06:33:33;;;;;;;1.58;1.42;;;20.30;50.70;;;;;;5114633;28;20058;-11
2022/11/12 06:36:19;;;;;;;1.38;1.27;;;20.20;50.70;;;;;;5114352;28;20560;-11
2022/11/12 06:39:03;;;;;;;2.65;1.67;;;20.30;50.70;;;;;;5114315;28;20063;-11
2022/11/12 06:41:48;;;;;;;1.83;1.38;;;20.20;50.70;;;;;;5114459;28;20055;-11
2022/11/12 06:44:32;;;;;;;2.08;1.45;;;20.30;50.70;;;;;;5114457;28;20560;-11
2022/11/12 06:47:16;;;;;;;1.65;1.52;;;20.30;50.70;;;;;;5111580;28;20071;-11
2022/11/12 06:50:01;;;;;;;1.67;1.33;;;20.30;50.70;;;;;;5114173;28;20054;-11
2022/11/12 06:52:45;;;;;;;1.63;1.52;;;20.30;50.60;;;;;;5114350;28;20055;-11
2022/11/12 06:55:29;;;;;;;2.75;1.58;;;20.30;50.60;;;;;;5114339;28;20112;-11
2022/11/12 06:58:13;;;;;;;1.63;1.50;;;20.30;50.60;;;;;;5113833;28;20440;-11
2022/11/12 07:01:06;;;;;;;1.60;1.30;;;20.30;50.60;;;;;;5113941;28;20072;-11
2022/11/12 07:03:52;;;;;;;2.75;1.80;;;20.30;50.50;;;;;;5113824;28;20063;-11
2022/11/12 07:06:37;;;;;;;1.73;1.35;;;20.30;50.50;;;;;;5113893;28;20142;-11
2022/11/12 07:09:21;;;;;;;1.50;1.40;;;20.30;50.50;;;;;;5113999;28;20087;-11
2022/11/12 07:12:05;;;;;;;2.13;1.52;;;20.40;50.50;;;;;;5113670;28;20062;-11
2022/11/12 07:14:51;;;;;;;1.50;1.33;;;20.40;50.40;;;;;;5114012;28;20086;-11
2022/11/12 07:17:35;;;;;;;1.60;1.50;;;20.40;50.30;;;;;;5113212;28;20078;-11
2022/11/12 07:20:19;;;;;;;1.63;1.52;;;20.40;50.30;;;;;;5113941;28;20498;-11
2022/11/12 07:23:04;;;;;;;1.55;1.40;;;20.40;50.20;;;;;;5113915;28;20136;-11
2022/11/12 07:25:56;;;;;;;1.60;1.20;;;20.50;50.20;;;;;;5114119;28;20082;-11
2022/11/12 07:28:40;;;;;;;1.33;1.23;;;20.50;50.20;;;;;;5113454;28;20094;-11
2022/11/12 07:31:25;;;;;;;1.85;1.55;;;20.50;50.10;;;;;;5113159;28;20438;-11
2022/11/12 07:34:09;;;;;;;2.00;1.35;;;20.50;50.20;;;;;;5110844;28;20058;-11
2022/11/12 07:36:53;;;;;;;1.30;1.20;;;20.50;50.20;;;;;;5113445;28;20062;-11
2022/11/12 07:39:37;;;;;;;1.38;1.27;;;20.50;50.20;;;;;;5113350;28;20058;-11
2022/11/12 07:42:22;;;;;;;2.10;1.60;;;20.50;50.10;;;;;;5113894;28;20124;-11
2022/11/12 07:45:07;;;;;;;1.80;1.48;;;20.50;50.00;;;;;;5113537;28;20053;-11
2022/11/12 07:47:51;;;;;;;1.40;1.30;;;20.60;50.00;;;;;;5109765;28;20059;-11
2022/11/12 07:50:35;;;;;;;1.77;1.40;;;20.60;49.90;;;;;;5113463;28;20058;-11
2022/11/12 07:53:20;;;;;;;2.03;1.55;;;20.60;49.90;;;;;;5113203;28;20086;-11
2022/11/12 07:56:04;;;;;;;1.98;1.30;;;20.60;49.90;;;;;;5113161;28;20086;-11
2022/11/12 07:58:49;;;;;;;1.50;1.40;;;20.60;49.90;;;;;;5112451;28;20063;-11
2022/11/12 08:01:40;;;;;;;1.83;1.40;;;20.60;49.80;;;;;;5113413;28;20124;-11
2022/11/12 08:04:25;;;;;;;2.72;1.52;;;20.60;49.80;;;;;;5113370;28;20102;-11
2022/11/12 08:07:09;;;;;;;1.35;1.25;;;20.60;49.90;;;;;;5113019;28;20066;-11
2022/11/12 08:09:54;;;;;;;1.48;1.38;;;20.60;49.90;;;;;;5113286;28;20090;-11
2022/11/12 08:12:38;;;;;;;1.73;1.40;;;20.60;49.90;;;;;;5112926;28;20065;-11
2022/11/12 08:15:22;;;;;;;1.42;1.33;;;20.60;49.90;;;;;;5113220;28;20078;-11
2022/11/12 08:18:06;;;;;;;1.42;1.33;;;20.60;50.40;;;;;;5112821;28;20104;-11
2022/11/12 08:20:51;;;;;;;1.10;1.10;;;20.60;49.90;;;;;;5113169;28;20058;-11
2022/11/12 08:23:36;;;;;;;1.77;1.20;;;20.60;49.80;;;;;;5113068;28;20058;-11
2022/11/12 08:26:20;;;;;;;1.23;1.13;;;20.60;49.80;;;;;;5113090;28;20113;-11
2022/11/12 08:29:05;;;;;;;1.33;1.23;;;20.60;49.90;;;;;;5112623;28;20067;-11
2022/11/12 08:31:49;;;;;;;1.33;1.20;;;20.60;49.80;;;;;;5116575;28;20108;-11
2022/11/12 08:34:34;;;;;;;1.52;1.35;;;20.60;49.80;;;;;;5116582;28;20062;-11
2022/11/12 08:37:19;;;;;;;1.77;1.55;;;20.60;49.90;;;;;;5116256;28;20085;-11
2022/11/12 08:40:03;;;;;;;1.40;1.30;;;20.60;49.90;;;;;;5116201;28;20053;-11
2022/11/12 08:42:47;;;;;;;1.35;1.25;;;20.60;50.00;;;;;;5116382;28;20063;-11
2022/11/12 08:45:33;;;;;;;2.78;1.30;;;20.60;49.90;;;;;;5116086;28;20085;-11
2022/11/12 08:48:17;;;;;;;1.92;1.55;;;20.60;49.90;;;;;;5116315;28;20094;-11
2022/11/12 08:51:03;;;;;;;1.60;1.50;;;20.60;49.90;;;;;;5115930;28;20104;-11
2022/11/12 08:53:48;;;;;;;1.40;1.30;;;20.60;49.90;;;;;;5116297;28;20066;-11
2022/11/12 08:56:32;;;;;;;1.30;1.20;;;20.60;49.90;;;;;;5116151;28;20509;-11
2022/11/12 08:59:17;;;;;;;1.15;1.10;;;20.60;49.90;;;;;;5115813;28;20090;-11
2022/11/12 09:02:01;;;;;;;1.38;1.08;;;20.60;49.90;;;;;;5115942;28;20108;-11
2022/11/12 09:04:45;;;;;;;1.65;1.52;;;20.60;49.80;;;;;;5116125;28;20046;-11
2022/11/12 09:07:30;;;;;;;1.52;1.30;;;20.60;49.80;;;;;;5115945;28;20410;-11
2022/11/12 09:10:14;;;;;;;1.50;1.15;;;20.60;50.40;;;;;;5115713;28;20083;-11
2022/11/12 09:12:58;;;;;;;1.45;1.30;;;20.60;49.80;;;;;;5115682;28;20185;-11
2022/11/12 09:15:43;;;;;;;1.80;1.52;;;20.60;49.80;;;;;;5115675;28;20150;-11
2022/11/12 09:18:27;;;;;;;1.40;1.30;;;20.60;49.80;;;;;;5115408;28;20066;-11
2022/11/12 09:21:13;;;;;;;1.20;1.00;;;20.60;49.80;;;;;;5115837;28;20146;-11
2022/11/12 09:23:57;;;;;;;2.08;1.70;;;20.60;49.70;;;;;;5115512;28;20552;-11
2022/11/12 09:26:42;;;;;;;1.20;1.10;;;20.70;49.80;;;;;;5115449;28;20139;-11
2022/11/12 09:29:26;;;;;;;1.45;1.35;;;20.70;49.80;;;;;;5115275;28;20503;-11
2022/11/12 09:32:10;;;;;;;1.30;1.20;;;20.60;49.80;;;;;;5115570;28;20131;-11
2022/11/12 09:34:54;;;;;;;1.75;1.45;;;20.60;49.80;;;;;;5115593;28;20067;-11
2022/11/12 09:37:38;;;;;;;1.75;1.35;;;20.70;49.80;;;;;;5115223;28;20054;-11
2022/11/12 09:40:51;;;;;;;1.90;1.40;;;20.60;49.70;;;;;;5115174;28;20058;-11
2022/11/12 09:43:55;;;;;;;1.38;1.20;;;20.70;49.80;;;;;;5089419;28;20108;-11
2022/11/12 09:46:52;;;;;;;1.58;1.40;;;20.70;49.80;;;;;;5112552;28;20146;-11
2022/11/12 09:49:55;;;;;;;1.35;1.25;;;20.60;49.70;;;;;;5115421;28;20058;-11
2022/11/12 09:52:42;;;;;;;1.40;1.30;;;20.70;49.80;;;;;;5115307;28;20112;-11
2022/11/12 09:55:37;;;;;;;1.40;1.30;;;20.70;49.70;;;;;;5115326;28;20142;-11
2022/11/12 09:58:24;;;;;;;1.83;1.27;;;20.70;50.30;;;;;;5114868;28;20058;-11
2022/11/12 10:01:23;;;;;;;1.50;1.40;;;20.70;49.80;;;;;;5115081;28;20502;-11
2022/11/12 10:04:41;;;;;;;1.63;1.23;;;20.70;49.80;;;;;;5114865;28;20074;-11
2022/11/12 10:07:43;;;;;;;1.25;1.15;;;20.70;49.70;;;;;;5111286;28;20058;-11
2022/11/12 10:10:48;;;;;;;1.85;1.42;;;20.70;49.70;;;;;;5114660;28;20514;-11
2022/11/12 10:13:58;;;;;;;2.03;1.35;;;20.70;49.70;;;;;;5114965;28;20059;-11
2022/11/12 10:17:07;;;;;;;2.00;1.67;;;20.70;49.70;;;;;;5114634;28;20067;-11
2022/11/12 10:20:35;;;;;;;1.10;1.00;;;20.70;49.70;;;;;;5114451;28;20058;-11
2022/11/12 10:23:26;;;;;;;1.40;1.30;;;20.70;49.70;;;;;;5012393;28;21060;-11
2022/11/12 10:26:16;;;;;;;1.60;1.48;;;20.70;49.60;;;;;;5012162;28;20088;-11
2022/11/12 10:29:12;;;;;;;1.40;1.30;;;20.70;49.60;;;;;;5012022;28;20145;-11
2022/11/12 10:31:56;;;;;;;1.20;1.10;;;20.70;49.60;;;;;;5012465;28;20089;-11
2022/11/12 10:34:41;;;;;;;1.30;1.20;;;20.70;49.60;;;;;;5077323;28;20058;-11
2022/11/12 10:37:40;;;;;;;1.27;1.17;;;20.70;49.60;;;;;;5114088;28;20078;-11
2022/11/12 10:40:27;;;;;;;1.40;1.30;;;20.70;49.60;;;;;;5114584;28;20109;-11
2022/11/12 10:43:14;;;;;;;1.30;1.20;;;20.70;49.60;;;;;;5114537;28;20108;-11
2022/11/12 10:46:23;;;;;;;1.08;1.02;;;20.70;49.60;;;;;;5114214;28;20085;-11
2022/11/12 10:49:15;;;;;;;1.08;1.02;;;20.70;49.60;;;;;;5114087;28;20065;-11
2022/11/12 10:51:59;;;;;;;1.60;1.50;;;20.70;49.60;;;;;;5113425;28;20059;-11
2022/11/12 10:54:44;;;;;;;1.67;1.58;;;20.70;49.70;;;;;;5114269;28;20089;-11
2022/11/12 10:57:28;;;;;;;2.00;1.80;;;20.70;49.70;;;;;;5113669;28;20146;-11
2022/11/12 11:00:13;;;;;;;1.35;1.25;;;20.70;49.70;;;;;;5114014;28;20061;-11
2022/11/12 11:02:59;;;;;;;1.63;1.20;;;20.70;49.70;;;;;;5113916;28;20143;-11
2022/11/12 11:06:05;;;;;;;1.27;1.17;;;20.70;49.70;;;;;;5113937;28;20137;-11
2022/11/12 11:08:52;;;;;;;1.27;1.17;;;20.70;49.70;;;;;;5113640;28;20104;-11
2022/11/12 11:11:52;;;;;;;1.35;1.20;;;20.70;49.70;;;;;;5113951;28;20050;-11
2022/11/12 11:14:38;;;;;;;1.30;1.20;;;20.70;49.60;;;;;;5114040;28;20046;-11
2022/11/12 11:17:23;;;;;;;1.35;1.17;;;20.70;49.70;;;;;;5114047;28;20117;-11
2022/11/12 11:20:31;;;;;;;1.38;1.27;;;20.70;49.70;;;;;;5113932;28;20501;-11
2022/11/12 11:23:36;;;;;;;2.22;1.50;;;20.70;49.70;;;;;;5113574;28;20522;-11
2022/11/12 11:26:35;;;;;;;1.20;1.10;;;20.60;49.70;;;;;;5113866;28;20054;-11
2022/11/12 11:29:57;;;;;;;1.20;1.10;;;20.60;49.70;;;;;;5113435;28;20449;-11
2022/11/12 11:32:57;;;;;;;1.20;1.10;;;20.60;50.30;;;;;;5113430;28;20054;-11
2022/11/12 11:36:00;;;;;;;1.55;1.45;;;20.60;49.70;;;;;;5113418;28;20058;-11
2022/11/12 11:38:55;;;;;;;1.58;1.40;;;20.60;49.70;;;;;;5113421;28;20053;-11
2022/11/12 11:41:58;;;;;;;1.50;1.40;;;20.60;49.70;;;;;;5113815;28;20046;-11
2022/11/12 11:44:43;;;;;;;1.42;1.33;;;20.60;49.70;;;;;;5113255;28;20098;-11
2022/11/12 11:47:52;;;;;;;1.50;1.33;;;20.60;49.80;;;;;;5113363;28;20062;-11
2022/11/12 11:50:58;;;;;;;1.58;1.48;;;20.60;49.80;;;;;;5113453;28;20085;-11
2022/11/12 11:54:05;;;;;;;1.98;1.50;;;20.60;49.80;;;;;;5113100;28;20556;-11
2022/11/12 11:56:54;;;;;;;1.85;1.30;;;20.60;49.90;;;;;;5110065;28;20074;-11
2022/11/12 11:59:50;;;;;;;1.77;1.30;;;20.60;49.90;;;;;;5112951;28;20067;-11
2022/11/12 12:02:59;;;;;;;1.20;1.10;;;20.50;49.90;;;;;;5113086;28;20066;-11
2022/11/12 12:05:53;;;;;;;1.20;1.08;;;20.60;49.90;;;;;;5116422;28;20058;-11
2022/11/12 12:09:14;;;;;;;1.10;1.00;;;20.60;49.90;;;;;;5116621;28;20065;-11
2022/11/12 12:12:33;;;;;;;1.17;1.10;;;20.60;49.90;;;;;;5116851;28;20136;-11
2022/11/12 12:15:29;;;;;;;1.50;1.20;;;20.60;49.80;;;;;;5116639;28;20067;-11
2022/11/12 12:18:30;;;;;;;1.65;1.45;;;20.60;49.80;;;;;;5117077;28;20062;-11
2022/11/12 12:21:17;;;;;;;1.40;1.30;;;20.60;49.90;;;;;;5113168;28;20101;-11
2022/11/12 12:24:02;;;;;;;1.25;1.15;;;20.60;49.80;;;;;;5117063;28;20490;-11
2022/11/12 12:26:56;;;;;;;1.23;1.13;;;20.60;49.80;;;;;;5116980;28;20092;-11
2022/11/12 12:29:56;;;;;;;1.48;1.30;;;20.60;49.80;;;;;;5116174;28;20054;-11
2022/11/12 12:33:01;;;;;;;1.60;1.33;;;20.60;49.80;;;;;;5116577;28;20493;-11
2022/11/12 12:35:53;;;;;;;1.33;1.20;;;20.60;49.80;;;;;;5116493;28;20080;-11
2022/11/12 12:38:50;;;;;;;1.48;1.38;;;20.60;49.80;;;;;;5116304;28;20102;-11
2022/11/12 12:41:54;;;;;;;1.50;1.38;;;20.60;49.80;;;;;;5116477;28;20054;-11
2022/11/12 12:45:04;;;;;;;1.30;1.20;;;20.50;49.80;;;;;;5116120;28;20054;-11
2022/11/12 12:47:50;;;;;;;1.52;1.42;;;20.60;49.80;;;;;;5116331;28;20185;-11
2022/11/12 12:50:38;;;;;;;1.02;1.02;;;20.60;49.80;;;;;;5116323;28;20109;-11
2022/11/12 12:53:28;;;;;;;1.65;1.27;;;20.60;49.80;;;;;;5116258;28;20135;-11
2022/11/12 12:56:13;;;;;;;1.47;1.10;;;20.60;49.80;;;;;;5116267;28;20054;-11
2022/11/12 12:59:02;;;;;;;1.33;1.20;;;20.60;49.90;;;;;;5115677;28;20504;-11
2022/11/12 13:01:55;;;;;;;1.30;1.20;;;20.60;49.90;;;;;;5115511;28;20059;-11
2022/11/12 13:04:55;;;;;;;1.48;1.33;;;20.60;49.80;;;;;;5116084;28;20142;-11
2022/11/12 13:07:40;;;;;;;2.13;1.30;;;20.60;49.90;;;;;;5116134;28;20066;-11
2022/11/12 13:10:40;;;;;;;1.20;1.00;;;20.60;49.80;;;;;;5115583;28;20423;-11
2022/11/12 13:13:30;;;;;;;1.33;1.20;;;20.60;49.80;;;;;;5115709;28;20058;-11
2022/11/12 13:16:52;;;;;;;1.00;1.00;;;20.60;49.90;;;;;;5115245;28;20058;-11
2022/11/12 13:20:06;;;;;;;1.30;1.20;;;20.60;49.90;;;;;;5115941;28;20107;-11
2022/11/12 13:22:51;;;;;;;1.42;1.27;;;20.60;49.80;;;;;;5115520;28;20507;-11
2022/11/12 13:25:36;;;;;;;2.03;1.00;;;20.60;49.80;;;;;;5115801;28;20116;-11
2022/11/12 13:28:20;;;;;;;1.23;1.13;;;20.60;49.80;;;;;;5115331;28;20100;-11
2022/11/12 13:31:24;;;;;;;1.20;1.10;;;20.60;49.80;;;;;;5115258;28;20085;-11
2022/11/12 13:34:20;;;;;;;1.45;1.30;;;20.60;50.30;;;;;;5115249;28;20054;-11
2022/11/12 13:37:05;;;;;;;1.33;1.20;;;20.60;49.80;;;;;;5115222;28;20058;-11
2022/11/12 13:39:49;;;;;;;1.20;1.10;;;20.60;50.30;;;;;;5115187;28;20113;-11
2022/11/12 13:42:49;;;;;;;1.13;1.02;;;20.60;49.70;;;;;;5115207;28;20483;-11
2022/11/12 13:45:59;;;;;;;1.45;1.30;;;20.60;49.70;;;;;;5115179;28;20070;-11
2022/11/12 13:48:53;;;;;;;1.13;1.10;;;20.60;49.70;;;;;;5114780;28;20084;-11
2022/11/12 13:51:44;;;;;;;0.90;0.90;;;20.60;49.80;;;;;;5114929;28;20089;-11
2022/11/12 13:54:34;;;;;;;1.20;1.10;;;20.60;49.80;;;;;;5115548;28;20403;-11
2022/11/12 13:57:18;;;;;;;1.20;1.00;;;20.60;49.70;;;;;;5114683;28;20556;-11
2022/11/12 14:00:19;;;;;;;1.08;0.93;;;20.60;49.70;;;;;;5115150;28;20494;-11
2022/11/12 14:03:06;;;;;;;1.10;1.00;;;20.60;49.70;;;;;;5115125;28;20531;-11
2022/11/12 14:05:50;;;;;;;1.58;1.30;;;20.60;49.80;;;;;;5115048;28;20098;-11
2022/11/12 14:08:50;;;;;;;1.17;1.08;;;20.60;49.80;;;;;;5114994;28;20101;-11
2022/11/12 14:11:34;;;;;;;1.25;1.15;;;20.60;49.80;;;;;;5114833;28;20400;-11
2022/11/12 14:14:46;;;;;;;1.15;1.05;;;20.60;49.80;;;;;;5114677;28;20077;-11
2022/11/12 14:17:44;;;;;;;1.23;1.13;;;20.60;49.80;;;;;;5114968;28;20404;-11
2022/11/12 14:20:39;;;;;;;1.20;1.10;;;20.60;49.80;;;;;;5114775;28;20054;-11
2022/11/12 14:23:25;;;;;;;1.00;1.00;;;20.60;49.80;;;;;;5114789;28;20555;-11
2022/11/12 14:26:11;;;;;;;1.25;1.15;;;20.50;49.80;;;;;;5114559;28;20108;-11
2022/11/12 14:28:55;;;;;;;1.02;1.02;;;20.50;49.80;;;;;;5113789;28;20159;-11
2022/11/12 14:31:41;;;;;;;1.15;1.05;;;20.50;49.80;;;;;;5113532;28;20143;-11
2022/11/12 14:34:33;;;;;;;1.25;1.15;;;20.60;49.90;;;;;;5114675;28;20062;-11
2022/11/12 14:37:34;;;;;;;1.02;1.00;;;20.50;49.80;;;;;;5114518;28;20116;-11
2022/11/12 14:40:19;;;;;;;1.42;1.20;;;20.50;50.30;;;;;;5111278;28;20077;-11
2022/11/12 14:43:04;;;;;;;1.63;1.40;;;20.50;49.90;;;;;;5114552;28;20096;-11
2022/11/12 14:45:51;;;;;;;1.10;1.02;;;20.50;49.90;;;;;;5114714;28;20097;-11
2022/11/12 14:48:46;;;;;;;1.20;1.05;;;20.50;49.90;;;;;;5113923;28;20053;-11
2022/11/12 14:51:35;;;;;;;1.13;1.00;;;20.50;49.90;;;;;;5113928;28;20150;-11
2022/11/12 14:54:30;;;;;;;1.20;1.10;;;20.50;49.90;;;;;;5114599;28;20058;-11
2022/11/12 14:57:24;;;;;;;1.20;1.10;;;20.50;49.90;;;;;;5113735;28;20113;-11
2022/11/12 15:00:39;;;;;;;1.45;1.35;;;20.50;49.90;;;;;;5113934;28;20058;-11
2022/11/12 15:03:29;;;;;;;1.50;1.05;;;20.50;49.90;;;;;;5114180;28;20540;-11